createdAt,value
2016-08-20T00:00:11.548Z,18.74
2016-08-20T00:01:11.533Z,18.61
2016-08-20T00:02:11.535Z,18.72
2016-08-20T00:03:11.536Z,18.61
2016-08-20T00:04:11.545Z,18.64
2016-08-20T00:05:11.524Z,18.42
2016-08-20T00:06:11.556Z,18.49
2016-08-20T00:07:11.547Z,18.43
2016-08-20T00:08:11.552Z,18.39
2016-08-20T00:09:11.575Z,18.42
2016-08-20T00:10:11.524Z,18.33
2016-08-20T00:11:11.548Z,18.39
2016-08-20T00:12:11.600Z,18.39
2016-08-20T00:13:11.540Z,18.24
2016-08-20T00:14:11.554Z,18.24
2016-08-20T00:15:11.538Z,18.22
2016-08-20T00:16:11.563Z,18.13
2016-08-20T00:17:11.541Z,18.19
2016-08-20T00:18:11.560Z,18.17
2016-08-20T00:19:11.544Z,18.09
2016-08-20T00:20:11.572Z,18.13
2016-08-20T00:21:11.552Z,18.09
2016-08-20T00:22:11.571Z,18.1
2016-08-20T00:23:11.554Z,18.13
2016-08-20T00:24:11.541Z,18.03
2016-08-20T00:25:11.556Z,18.02
2016-08-20T00:26:11.574Z,18.02
2016-08-20T00:27:11.560Z,18.1
2016-08-20T00:28:11.569Z,17.92
2016-08-20T00:29:11.570Z,17.88
2016-08-20T00:30:11.574Z,17.97
2016-08-20T00:31:11.576Z,17.87
2016-08-20T00:32:11.571Z,17.81
2016-08-20T00:33:11.577Z,17.99
2016-08-20T00:34:11.583Z,17.89
2016-08-20T00:35:11.590Z,17.88
2016-08-20T00:36:11.586Z,17.82
2016-08-20T00:37:11.580Z,17.84
2016-08-20T00:38:11.586Z,17.76
2016-08-20T00:39:11.622Z,17.81
2016-08-20T00:40:11.572Z,17.89
2016-08-20T00:41:11.584Z,17.73
2016-08-20T00:42:11.622Z,17.92
2016-08-20T00:43:11.592Z,17.78
2016-08-20T00:44:11.637Z,17.81
2016-08-20T00:45:11.604Z,17.79
2016-08-20T00:46:11.565Z,17.81
2016-08-20T00:47:11.571Z,17.84
2016-08-20T00:48:11.577Z,17.74
2016-08-20T00:49:11.573Z,17.79
2016-08-20T00:50:11.573Z,17.67
2016-08-20T00:51:11.573Z,17.73
2016-08-20T00:52:11.575Z,17.81
2016-08-20T00:53:11.569Z,17.76
2016-08-20T00:54:11.589Z,17.76
2016-08-20T00:55:11.586Z,17.63
2016-08-20T00:56:11.576Z,17.63
2016-08-20T00:57:12.265Z,17.64
2016-08-20T00:58:11.621Z,17.62
2016-08-20T00:59:11.586Z,17.62
2016-08-20T01:00:11.587Z,17.62
2016-08-20T01:01:11.572Z,17.53
2016-08-20T01:02:11.628Z,17.57
2016-08-20T01:03:11.573Z,17.53
2016-08-20T01:04:11.610Z,17.53
2016-08-20T01:05:11.618Z,17.48
2016-08-20T01:06:11.580Z,17.5
2016-08-20T01:07:11.601Z,17.38
2016-08-20T01:08:11.594Z,17.4
2016-08-20T01:09:11.600Z,17.32
2016-08-20T01:10:11.619Z,17.36
2016-08-20T01:11:11.585Z,17.29
2016-08-20T01:12:11.607Z,17.3
2016-08-20T01:13:11.598Z,17.38
2016-08-20T01:14:11.613Z,17.32
2016-08-20T01:15:11.595Z,17.33
2016-08-20T01:16:11.588Z,17.33
2016-08-20T01:17:11.624Z,17.26
2016-08-20T01:18:11.616Z,17.2
2016-08-20T01:19:11.606Z,17.18
2016-08-20T01:20:11.590Z,17.2
2016-08-20T01:21:11.621Z,17.18
2016-08-20T01:22:11.629Z,17.23
2016-08-20T01:23:11.610Z,17.08
2016-08-20T01:24:11.625Z,17.22
2016-08-20T01:25:11.637Z,17.06
2016-08-20T01:26:11.620Z,17.11
2016-08-20T01:27:11.623Z,17.06
2016-08-20T01:28:11.611Z,17.08
2016-08-20T01:29:11.622Z,17.11
2016-08-20T01:30:11.629Z,17.1
2016-08-20T01:31:11.623Z,17.03
2016-08-20T01:32:11.619Z,16.99
2016-08-20T01:33:11.607Z,16.98
2016-08-20T01:34:11.604Z,16.98
2016-08-20T01:35:11.607Z,16.93
2016-08-20T01:36:11.615Z,16.92
2016-08-20T01:37:11.678Z,16.98
2016-08-20T01:38:11.635Z,17.03
2016-08-20T01:39:11.606Z,17.07
2016-08-20T01:40:11.645Z,17.08
2016-08-20T01:41:11.635Z,17.1
2016-08-20T01:42:11.626Z,17.06
2016-08-20T01:43:11.633Z,17.15
2016-08-20T01:44:11.646Z,17.18
2016-08-20T01:45:11.651Z,17.26
2016-08-20T01:46:11.620Z,17.25
2016-08-20T01:47:11.638Z,17.25
2016-08-20T01:48:11.642Z,17.22
2016-08-20T01:49:11.660Z,17.33
2016-08-20T01:50:11.641Z,17.25
2016-08-20T01:51:11.615Z,17.28
2016-08-20T01:52:11.636Z,17.33
2016-08-20T01:53:11.668Z,17.26
2016-08-20T01:54:11.666Z,17.35
2016-08-20T01:55:11.649Z,17.47
2016-08-20T01:56:11.621Z,17.38
2016-08-20T01:57:11.623Z,17.51
2016-08-20T01:58:11.669Z,17.5
2016-08-20T01:59:11.642Z,17.54
2016-08-20T02:00:11.646Z,17.35
2016-08-20T02:01:11.658Z,17.62
2016-08-20T02:02:11.673Z,17.5
2016-08-20T02:03:46.338Z,17.51
2016-08-20T02:04:18.737Z,17.62
2016-08-20T02:05:53.321Z,17.62
2016-08-20T02:06:36.611Z,17.57
2016-08-20T02:07:38.838Z,17.55
2016-08-20T02:09:12.844Z,17.62
2016-08-20T02:10:35.742Z,17.63
2016-08-20T02:11:59.723Z,17.64
2016-08-20T02:13:24.286Z,17.73
2016-08-20T02:14:48.152Z,17.74
2016-08-20T02:16:09.243Z,17.79
2016-08-20T02:17:31.182Z,17.88
2016-08-20T02:18:51.856Z,17.81
2016-08-20T02:20:14.175Z,17.76
2016-08-20T02:21:35.349Z,17.76
2016-08-20T02:22:53.962Z,17.82
2016-08-20T02:23:52.142Z,17.69
2016-08-20T02:25:02.508Z,17.85
2016-08-20T02:26:20.064Z,17.89
2016-08-20T02:27:36.404Z,17.84
2016-08-20T02:28:07.737Z,17.84
2016-08-20T02:29:07.743Z,17.76
2016-08-20T02:30:07.755Z,17.79
2016-08-20T02:31:07.833Z,17.89
2016-08-20T02:32:07.725Z,17.88
2016-08-20T02:33:07.733Z,17.89
2016-08-20T02:34:07.739Z,17.71
2016-08-20T02:35:07.755Z,17.92
2016-08-20T02:36:07.760Z,17.85
2016-08-20T02:37:07.744Z,17.87
2016-08-20T02:38:07.762Z,17.99
2016-08-20T02:39:07.744Z,17.89
2016-08-20T02:40:07.746Z,17.82
2016-08-20T02:41:07.739Z,17.91
2016-08-20T02:42:08.423Z,17.81
2016-08-20T02:43:07.801Z,17.89
2016-08-20T02:44:07.740Z,17.85
2016-08-20T02:45:07.754Z,17.84
2016-08-20T02:46:07.741Z,17.78
2016-08-20T02:47:07.791Z,17.84
2016-08-20T02:48:07.768Z,17.79
2016-08-20T02:49:07.761Z,17.95
2016-08-20T02:50:07.771Z,17.88
2016-08-20T02:51:07.756Z,17.89
2016-08-20T02:52:07.756Z,17.85
2016-08-20T02:53:07.773Z,17.87
2016-08-20T02:54:07.755Z,17.81
2016-08-20T02:55:07.756Z,17.85
2016-08-20T02:56:07.752Z,17.85
2016-08-20T02:57:07.756Z,17.82
2016-08-20T02:58:07.746Z,17.88
2016-08-20T02:59:07.770Z,17.89
2016-08-20T03:00:07.760Z,17.82
2016-08-20T03:01:07.754Z,17.82
2016-08-20T03:02:07.775Z,18
2016-08-20T03:03:07.786Z,17.82
2016-08-20T03:04:09.207Z,17.88
2016-08-20T03:05:07.771Z,17.82
2016-08-20T03:06:07.774Z,17.84
2016-08-20T03:07:07.783Z,17.94
2016-08-20T03:08:07.784Z,18.06
2016-08-20T03:09:07.785Z,17.73
2016-08-20T03:10:07.774Z,17.88
2016-08-20T03:11:07.772Z,17.74
2016-08-20T03:12:07.770Z,17.88
2016-08-20T03:13:07.799Z,17.78
2016-08-20T03:14:07.787Z,17.85
2016-08-20T03:15:07.788Z,17.76
2016-08-20T03:16:07.780Z,17.78
2016-08-20T03:17:07.767Z,17.84
2016-08-20T03:18:07.786Z,17.81
2016-08-20T03:19:07.787Z,17.87
2016-08-20T03:20:07.804Z,17.91
2016-08-20T03:21:07.820Z,17.81
2016-08-20T03:22:07.807Z,17.81
2016-08-20T03:23:07.812Z,17.87
2016-08-20T03:24:07.773Z,17.85
2016-08-20T03:25:07.785Z,17.82
2016-08-20T03:26:07.771Z,17.89
2016-08-20T03:27:07.785Z,17.91
2016-08-20T03:28:07.802Z,17.95
2016-08-20T03:29:07.773Z,17.79
2016-08-20T03:30:07.791Z,17.78
2016-08-20T03:31:07.786Z,17.79
2016-08-20T03:32:07.791Z,17.79
2016-08-20T03:33:07.798Z,17.91
2016-08-20T03:34:07.776Z,17.84
2016-08-20T03:35:07.791Z,17.88
2016-08-20T03:36:07.788Z,17.82
2016-08-20T03:37:07.819Z,17.79
2016-08-20T03:38:07.789Z,17.84
2016-08-20T03:39:07.777Z,17.94
2016-08-20T03:40:07.807Z,17.94
2016-08-20T03:41:07.790Z,17.91
2016-08-20T03:42:07.796Z,17.89
2016-08-20T03:43:07.788Z,17.82
2016-08-20T03:44:07.792Z,17.85
2016-08-20T03:45:07.801Z,17.85
2016-08-20T03:46:07.816Z,17.87
2016-08-20T03:47:07.794Z,17.88
2016-08-20T03:48:07.820Z,17.89
2016-08-20T03:49:07.805Z,17.87
2016-08-20T03:50:07.820Z,17.95
2016-08-20T03:51:07.832Z,17.92
2016-08-20T03:52:07.833Z,17.88
2016-08-20T03:53:07.864Z,17.89
2016-08-20T03:54:07.828Z,17.99
2016-08-20T03:55:07.852Z,18.02
2016-08-20T03:56:07.844Z,17.97
2016-08-20T03:57:07.851Z,18
2016-08-20T03:58:07.855Z,18.04
2016-08-20T03:59:07.821Z,18.04
2016-08-20T04:00:07.828Z,18.07
2016-08-20T04:01:07.823Z,18.07
2016-08-20T04:02:07.823Z,17.95
2016-08-20T04:03:07.819Z,18.04
2016-08-20T04:04:07.819Z,18.13
2016-08-20T04:05:07.825Z,17.99
2016-08-20T04:06:07.834Z,18.06
2016-08-20T04:07:07.818Z,17.95
2016-08-20T04:08:07.833Z,17.91
2016-08-20T04:09:07.834Z,17.89
2016-08-20T04:10:07.807Z,18
2016-08-20T04:11:07.834Z,18.03
2016-08-20T04:12:07.823Z,18.04
2016-08-20T04:13:07.869Z,18.02
2016-08-20T04:14:07.839Z,18.03
2016-08-20T04:15:07.856Z,17.97
2016-08-20T04:16:07.821Z,17.97
2016-08-20T04:17:07.826Z,18.09
2016-08-20T04:18:07.849Z,17.95
2016-08-20T04:19:07.821Z,17.97
2016-08-20T04:20:07.866Z,18.07
2016-08-20T04:21:07.857Z,17.92
2016-08-20T04:22:07.841Z,17.99
2016-08-20T04:23:07.849Z,18.07
2016-08-20T04:24:07.853Z,18
2016-08-20T04:25:07.837Z,17.95
2016-08-20T04:26:07.822Z,17.91
2016-08-20T04:27:07.882Z,17.92
2016-08-20T04:28:07.851Z,18.02
2016-08-20T04:29:07.872Z,18.03
2016-08-20T04:30:07.855Z,18.02
2016-08-20T04:31:07.872Z,17.92
2016-08-20T04:32:07.851Z,17.92
2016-08-20T04:33:07.871Z,18
2016-08-20T04:34:07.831Z,18.06
2016-08-20T04:35:07.874Z,18
2016-08-20T04:36:07.872Z,17.99
2016-08-20T04:37:07.851Z,18.1
2016-08-20T04:38:07.838Z,18.02
2016-08-20T04:39:07.850Z,17.97
2016-08-20T04:40:07.851Z,17.99
2016-08-20T04:41:07.851Z,17.91
2016-08-20T04:42:07.864Z,17.87
2016-08-20T04:43:07.879Z,18.02
2016-08-20T04:44:07.868Z,18.02
2016-08-20T04:45:07.865Z,17.87
2016-08-20T04:46:07.868Z,17.94
2016-08-20T04:47:07.854Z,18
2016-08-20T04:48:07.868Z,17.85
2016-08-20T04:49:07.868Z,17.91
2016-08-20T04:50:07.867Z,17.94
2016-08-20T04:51:07.878Z,17.85
2016-08-20T04:52:07.867Z,17.91
2016-08-20T04:53:07.870Z,17.92
2016-08-20T04:54:07.868Z,17.88
2016-08-20T04:55:07.866Z,17.84
2016-08-20T04:56:07.872Z,18
2016-08-20T04:57:07.890Z,17.85
2016-08-20T04:58:07.866Z,17.89
2016-08-20T04:59:07.866Z,17.85
2016-08-20T05:00:07.896Z,17.85
2016-08-20T05:01:07.881Z,17.91
2016-08-20T05:02:07.888Z,17.85
2016-08-20T05:03:07.887Z,17.92
2016-08-20T05:04:07.884Z,17.84
2016-08-20T05:05:07.895Z,17.87
2016-08-20T05:06:07.867Z,17.92
2016-08-20T05:07:07.882Z,17.94
2016-08-20T05:08:07.867Z,17.91
2016-08-20T05:09:07.857Z,17.99
2016-08-20T05:10:07.895Z,17.85
2016-08-20T05:11:07.900Z,18.02
2016-08-20T05:12:07.866Z,17.95
2016-08-20T05:13:07.941Z,18.03
2016-08-20T05:14:07.885Z,18.06
2016-08-20T05:15:07.989Z,18.02
2016-08-20T05:16:07.885Z,18.19
2016-08-20T05:17:07.892Z,18.09
2016-08-20T05:18:07.899Z,18.21
2016-08-20T05:19:08.161Z,18.19
2016-08-20T05:20:07.869Z,18.12
2016-08-20T05:21:07.894Z,18.24
2016-08-20T05:22:07.927Z,18.31
2016-08-20T05:23:07.933Z,18.18
2016-08-20T05:24:07.927Z,18.37
2016-08-20T05:25:08.578Z,18.27
2016-08-20T05:26:07.897Z,18.42
2016-08-20T05:27:07.903Z,18.52
2016-08-20T05:28:08.465Z,18.39
2016-08-20T05:29:07.898Z,18.55
2016-08-20T05:30:07.890Z,18.5
2016-08-20T05:31:07.897Z,18.52
2016-08-20T05:32:07.904Z,18.52
2016-08-20T05:33:07.912Z,18.73
2016-08-20T05:34:07.913Z,18.74
2016-08-20T05:35:07.911Z,18.87
2016-08-20T05:36:07.918Z,18.77
2016-08-20T05:37:07.905Z,18.86
2016-08-20T05:38:07.922Z,18.92
2016-08-20T05:39:07.916Z,18.86
2016-08-20T05:40:07.923Z,19.01
2016-08-20T05:41:07.899Z,18.98
2016-08-20T05:42:07.892Z,19.17
2016-08-20T05:43:07.898Z,19.13
2016-08-20T05:44:07.889Z,19.18
2016-08-20T05:45:07.898Z,19.15
2016-08-20T05:46:07.917Z,19.23
2016-08-20T05:47:07.969Z,19.24
2016-08-20T05:48:07.930Z,19.33
2016-08-20T05:49:07.951Z,19.24
2016-08-20T05:50:07.944Z,19.32
2016-08-20T05:51:07.929Z,19.42
2016-08-20T05:52:07.901Z,19.53
2016-08-20T05:53:07.922Z,19.55
2016-08-20T05:54:07.929Z,19.61
2016-08-20T05:55:07.921Z,19.7
2016-08-20T05:56:07.915Z,19.78
2016-08-20T05:57:07.932Z,19.69
2016-08-20T05:58:07.914Z,19.73
2016-08-20T05:59:07.914Z,19.73
2016-08-20T06:00:08.506Z,19.8
2016-08-20T06:01:07.939Z,19.87
2016-08-20T06:02:08.021Z,19.97
2016-08-20T06:03:07.930Z,19.94
2016-08-20T06:04:07.916Z,20.06
2016-08-20T06:05:07.949Z,19.94
2016-08-20T06:06:07.936Z,19.91
2016-08-20T06:07:08.092Z,19.91
2016-08-20T06:08:08.037Z,20.05
2016-08-20T06:09:07.963Z,19.95
2016-08-20T06:10:07.948Z,20.08
2016-08-20T06:11:08.022Z,20.05
2016-08-20T06:12:08.139Z,20.09
2016-08-20T06:13:08.179Z,20.24
2016-08-20T06:14:07.920Z,20.23
2016-08-20T06:15:07.932Z,20.31
2016-08-20T06:16:07.949Z,20.3
2016-08-20T06:17:07.949Z,20.28
2016-08-20T06:18:07.982Z,20.31
2016-08-20T06:19:08.051Z,20.34
2016-08-20T06:20:07.934Z,20.28
2016-08-20T06:21:07.944Z,20.33
2016-08-20T06:22:07.947Z,20.38
2016-08-20T06:23:07.944Z,20.39
2016-08-20T06:24:07.947Z,20.47
2016-08-20T06:25:07.952Z,20.51
2016-08-20T06:26:07.963Z,20.64
2016-08-20T06:27:07.935Z,20.46
2016-08-20T06:28:07.974Z,20.5
2016-08-20T06:29:07.963Z,20.5
2016-08-20T06:30:07.939Z,20.61
2016-08-20T06:31:07.947Z,20.62
2016-08-20T06:32:08.025Z,20.69
2016-08-20T06:33:07.945Z,20.62
2016-08-20T06:34:07.979Z,20.56
2016-08-20T06:35:07.947Z,20.53
2016-08-20T06:36:07.978Z,20.65
2016-08-20T06:37:07.945Z,20.61
2016-08-20T06:38:07.977Z,20.74
2016-08-20T06:39:07.976Z,20.61
2016-08-20T06:40:08.154Z,20.68
2016-08-20T06:41:08.010Z,20.87
2016-08-20T06:42:07.966Z,20.79
2016-08-20T06:43:07.983Z,20.74
2016-08-20T06:44:08.025Z,20.81
2016-08-20T06:45:08.024Z,20.79
2016-08-20T06:46:08.002Z,20.86
2016-08-20T06:47:08.420Z,20.84
2016-08-20T06:48:07.987Z,20.79
2016-08-20T06:49:08.066Z,20.8
2016-08-20T06:50:08.009Z,20.66
2016-08-20T06:51:08.148Z,20.74
2016-08-20T06:52:08.059Z,20.69
2016-08-20T06:53:07.978Z,20.71
2016-08-20T06:54:07.963Z,20.72
2016-08-20T06:55:07.994Z,20.68
2016-08-20T06:56:08.010Z,20.66
2016-08-20T06:57:08.013Z,20.76
2016-08-20T06:58:08.009Z,20.69
2016-08-20T06:59:07.988Z,20.64
2016-08-20T07:00:08.025Z,20.49
2016-08-20T07:01:07.986Z,20.64
2016-08-20T07:02:08.088Z,20.62
2016-08-20T07:03:08.261Z,20.66
2016-08-20T07:04:07.994Z,20.62
2016-08-20T07:05:07.981Z,20.8
2016-08-20T07:06:07.979Z,20.81
2016-08-20T07:07:07.997Z,20.81
2016-08-20T07:08:07.996Z,20.84
2016-08-20T07:09:08.063Z,20.77
2016-08-20T07:10:08.084Z,20.91
2016-08-20T07:11:08.137Z,20.98
2016-08-20T07:12:08.015Z,20.9
2016-08-20T07:13:08.026Z,20.87
2016-08-20T07:14:08.101Z,21.02
2016-08-20T07:15:08.012Z,20.96
2016-08-20T07:16:08.011Z,20.99
2016-08-20T07:17:08.001Z,20.9
2016-08-20T07:18:08.026Z,20.99
2016-08-20T07:19:08.080Z,20.95
2016-08-20T07:20:08.022Z,21.02
2016-08-20T07:21:08.028Z,21.01
2016-08-20T07:22:08.018Z,21.08
2016-08-20T07:23:08.401Z,21.13
2016-08-20T07:24:08.000Z,21.2
2016-08-20T07:25:08.011Z,21.29
2016-08-20T07:26:08.026Z,21.23
2016-08-20T07:27:08.010Z,21.14
2016-08-20T07:28:08.027Z,21.11
2016-08-20T07:29:08.034Z,21.23
2016-08-20T07:30:08.040Z,21.21
2016-08-20T07:31:08.021Z,21.23
2016-08-20T07:32:08.171Z,21.34
2016-08-20T07:33:08.090Z,21.44
2016-08-20T07:34:08.026Z,21.51
2016-08-20T07:35:08.010Z,21.51
2016-08-20T07:36:08.012Z,21.56
2016-08-20T07:37:08.039Z,21.5
2016-08-20T07:38:08.029Z,21.56
2016-08-20T07:39:08.023Z,21.53
2016-08-20T07:40:08.061Z,21.57
2016-08-20T07:41:08.033Z,21.64
2016-08-20T07:42:08.070Z,21.67
2016-08-20T07:43:08.031Z,21.76
2016-08-20T07:44:08.024Z,21.82
2016-08-20T07:45:08.044Z,21.98
2016-08-20T07:46:08.042Z,22.07
2016-08-20T07:47:08.047Z,22.29
2016-08-20T07:48:08.017Z,22.37
2016-08-20T07:49:08.030Z,22.37
2016-08-20T07:50:08.030Z,22.31
2016-08-20T07:51:08.035Z,22.35
2016-08-20T07:52:08.041Z,22.5
2016-08-20T07:53:08.027Z,22.47
2016-08-20T07:54:08.048Z,22.57
2016-08-20T07:55:08.051Z,22.6
2016-08-20T07:56:08.814Z,22.71
2016-08-20T07:57:08.066Z,22.92
2016-08-20T07:58:08.029Z,22.99
2016-08-20T07:59:08.509Z,23.12
2016-08-20T08:00:08.034Z,23.01
2016-08-20T08:01:08.043Z,23.07
2016-08-20T08:02:08.058Z,23.19
2016-08-20T08:03:08.042Z,23.15
2016-08-20T08:04:08.041Z,23.26
2016-08-20T08:05:08.075Z,23.24
2016-08-20T08:06:08.042Z,23.29
2016-08-20T08:07:08.076Z,23.39
2016-08-20T08:08:08.059Z,23.46
2016-08-20T08:09:08.059Z,23.45
2016-08-20T08:10:08.054Z,23.47
2016-08-20T08:11:08.041Z,23.61
2016-08-20T08:12:08.080Z,23.57
2016-08-20T08:13:08.130Z,23.55
2016-08-20T08:14:08.077Z,23.34
2016-08-20T08:15:08.045Z,23.43
2016-08-20T08:16:08.077Z,23.58
2016-08-20T08:17:08.074Z,23.53
2016-08-20T08:18:08.077Z,23.43
2016-08-20T08:19:08.069Z,23.5
2016-08-20T08:20:08.058Z,23.39
2016-08-20T08:21:08.079Z,23.12
2016-08-20T08:22:08.097Z,23.09
2016-08-20T08:23:08.064Z,23.23
2016-08-20T08:24:08.104Z,23.24
2016-08-20T08:25:08.076Z,23.09
2016-08-20T08:26:08.075Z,23.42
2016-08-20T08:27:08.124Z,23.49
2016-08-20T08:28:08.110Z,23.52
2016-08-20T08:29:08.095Z,23.62
2016-08-20T08:30:08.102Z,23.67
2016-08-20T08:31:08.070Z,23.77
2016-08-20T08:32:08.106Z,23.9
2016-08-20T08:33:08.062Z,23.89
2016-08-20T08:34:08.083Z,24.04
2016-08-20T08:35:08.090Z,24.01
2016-08-20T08:36:08.089Z,23.95
2016-08-20T08:37:08.081Z,24.05
2016-08-20T08:38:08.091Z,24.02
2016-08-20T08:39:08.087Z,23.98
2016-08-20T08:40:08.094Z,23.94
2016-08-20T08:41:08.118Z,24.05
2016-08-20T08:42:08.109Z,23.89
2016-08-20T08:43:08.101Z,23.86
2016-08-20T08:44:08.077Z,23.7
2016-08-20T08:45:08.126Z,23.68
2016-08-20T08:46:08.119Z,23.76
2016-08-20T08:47:08.094Z,23.77
2016-08-20T08:48:08.150Z,23.8
2016-08-20T08:49:08.107Z,23.8
2016-08-20T08:50:08.110Z,23.76
2016-08-20T08:51:08.120Z,23.52
2016-08-20T08:52:08.131Z,23.65
2016-08-20T08:53:08.146Z,23.71
2016-08-20T08:54:08.134Z,23.77
2016-08-20T08:55:08.105Z,23.89
2016-08-20T08:56:08.120Z,23.89
2016-08-20T08:57:08.092Z,23.85
2016-08-20T08:58:08.122Z,23.89
2016-08-20T08:59:08.135Z,23.76
2016-08-20T09:00:08.124Z,23.67
2016-08-20T09:01:08.093Z,23.64
2016-08-20T09:02:08.125Z,23.5
2016-08-20T09:03:08.164Z,23.5
2016-08-20T09:04:08.123Z,23.58
2016-08-20T09:05:08.106Z,23.45
2016-08-20T09:06:08.106Z,23.34
2016-08-20T09:07:08.112Z,23.43
2016-08-20T09:08:08.152Z,23.39
2016-08-20T09:09:08.117Z,23.46
2016-08-20T09:10:08.169Z,23.5
2016-08-20T09:11:08.116Z,23.57
2016-08-20T09:12:08.165Z,23.39
2016-08-20T09:13:08.155Z,23.45
2016-08-20T09:14:08.150Z,23.42
2016-08-20T09:15:08.131Z,23.4
2016-08-20T09:16:08.183Z,23.46
2016-08-20T09:17:08.137Z,23.47
2016-08-20T09:18:08.183Z,23.58
2016-08-20T09:19:08.134Z,23.62
2016-08-20T09:20:08.243Z,23.53
2016-08-20T09:21:08.218Z,23.6
2016-08-20T09:22:08.141Z,23.64
2016-08-20T09:23:08.184Z,23.9
2016-08-20T09:24:08.180Z,23.8
2016-08-20T09:25:08.205Z,23.87
2016-08-20T09:26:08.156Z,24.02
2016-08-20T09:27:08.153Z,24.08
2016-08-20T09:28:08.151Z,24.04
2016-08-20T09:29:08.196Z,24.16
2016-08-20T09:30:08.145Z,24.17
2016-08-20T09:31:08.160Z,24.2
2016-08-20T09:32:08.206Z,24.05
2016-08-20T09:33:08.827Z,24.2
2016-08-20T09:34:08.142Z,24.19
2016-08-20T09:35:08.191Z,24.19
2016-08-20T09:36:08.168Z,24.19
2016-08-20T09:37:08.218Z,24.2
2016-08-20T09:38:08.154Z,24.22
2016-08-20T09:39:08.185Z,24.22
2016-08-20T09:40:08.512Z,24.27
2016-08-20T09:41:08.154Z,24.37
2016-08-20T09:42:08.139Z,24.27
2016-08-20T09:43:08.168Z,24.23
2016-08-20T09:44:08.181Z,24.2
2016-08-20T09:45:08.245Z,24.5
2016-08-20T09:46:08.173Z,24.39
2016-08-20T09:47:08.169Z,24.41
2016-08-20T09:48:08.205Z,24.52
2016-08-20T09:49:08.183Z,24.47
2016-08-20T09:50:08.161Z,24.29
2016-08-20T09:51:08.215Z,24.38
2016-08-20T09:52:08.196Z,24.17
2016-08-20T09:53:08.173Z,24.22
2016-08-20T09:54:08.188Z,24.1
2016-08-20T09:55:08.202Z,24.05
2016-08-20T09:56:08.172Z,24.01
2016-08-20T09:57:08.210Z,23.9
2016-08-20T09:58:08.193Z,24.08
2016-08-20T09:59:08.170Z,23.95
2016-08-20T10:00:08.201Z,24.22
2016-08-20T10:01:08.170Z,24.29
2016-08-20T10:02:08.198Z,24.05
2016-08-20T10:03:08.169Z,24.27
2016-08-20T10:04:08.155Z,24.12
2016-08-20T10:05:08.172Z,24.29
2016-08-20T10:06:08.183Z,24.31
2016-08-20T10:07:08.230Z,24.24
2016-08-20T10:08:08.247Z,24.23
2016-08-20T10:09:08.216Z,24.23
2016-08-20T10:10:08.284Z,24.23
2016-08-20T10:11:08.216Z,24.05
2016-08-20T10:12:08.244Z,23.95
2016-08-20T10:13:08.238Z,23.79
2016-08-20T10:14:08.202Z,23.82
2016-08-20T10:15:08.211Z,23.85
2016-08-20T10:16:08.225Z,23.89
2016-08-20T10:17:08.202Z,23.82
2016-08-20T10:18:08.181Z,23.87
2016-08-20T10:19:08.176Z,23.89
2016-08-20T10:20:08.216Z,23.97
2016-08-20T10:21:08.208Z,23.92
2016-08-20T10:22:08.200Z,23.98
2016-08-20T10:23:08.187Z,24.04
2016-08-20T10:24:08.202Z,23.89
2016-08-20T10:25:08.219Z,23.97
2016-08-20T10:26:08.205Z,24.05
2016-08-20T10:27:08.200Z,24.01
2016-08-20T10:28:08.217Z,24.08
2016-08-20T10:29:08.238Z,23.85
2016-08-20T10:30:08.197Z,23.89
2016-08-20T10:31:08.193Z,23.75
2016-08-20T10:32:08.200Z,23.8
2016-08-20T10:33:08.206Z,23.92
2016-08-20T10:34:08.210Z,23.68
2016-08-20T10:35:08.255Z,23.82
2016-08-20T10:36:08.214Z,23.86
2016-08-20T10:37:08.260Z,24.13
2016-08-20T10:38:08.233Z,24.07
2016-08-20T10:39:08.242Z,24.14
2016-08-20T10:40:08.224Z,24.08
2016-08-20T10:41:09.231Z,24.14
2016-08-20T10:42:08.222Z,24.08
2016-08-20T10:43:08.235Z,24.13
2016-08-20T10:44:08.227Z,23.9
2016-08-20T10:45:08.207Z,24.05
2016-08-20T10:46:08.230Z,24.31
2016-08-20T10:47:08.278Z,24.37
2016-08-20T10:48:08.209Z,24.59
2016-08-20T10:49:08.414Z,24.69
2016-08-20T10:50:08.266Z,24.5
2016-08-20T10:51:08.230Z,24.42
2016-08-20T10:52:08.234Z,24.67
2016-08-20T10:53:08.247Z,24.87
2016-08-20T10:54:08.235Z,24.61
2016-08-20T10:55:08.251Z,24.53
2016-08-20T10:56:08.806Z,24.37
2016-08-20T10:57:08.264Z,24.52
2016-08-20T10:58:08.301Z,24.54
2016-08-20T10:59:08.273Z,24.41
2016-08-20T11:00:08.238Z,24.32
2016-08-20T11:01:08.242Z,24.34
2016-08-20T11:02:08.248Z,24.34
2016-08-20T11:03:08.252Z,24.64
2016-08-20T11:04:08.233Z,24.71
2016-08-20T11:05:08.268Z,24.9
2016-08-20T11:06:08.280Z,25.05
2016-08-20T11:07:08.229Z,24.98
2016-08-20T11:08:08.290Z,25.01
2016-08-20T11:09:08.299Z,25.06
2016-08-20T11:10:08.748Z,25.05
2016-08-20T11:11:08.253Z,25.27
2016-08-20T11:12:08.231Z,25.34
2016-08-20T11:13:08.300Z,25.25
2016-08-20T11:14:08.265Z,25.3
2016-08-20T11:15:08.297Z,25.05
2016-08-20T11:16:08.297Z,24.92
2016-08-20T11:17:08.289Z,24.94
2016-08-20T11:18:08.274Z,24.95
2016-08-20T11:19:08.287Z,24.98
2016-08-20T11:20:08.301Z,24.87
2016-08-20T11:21:08.251Z,24.85
2016-08-20T11:22:08.302Z,24.73
2016-08-20T11:23:08.277Z,24.91
2016-08-20T11:24:08.287Z,25.01
2016-08-20T11:25:08.249Z,25.09
2016-08-20T11:26:08.253Z,25.19
2016-08-20T11:27:08.293Z,25.43
2016-08-20T11:28:08.290Z,25.53
2016-08-20T11:29:08.263Z,25.34
2016-08-20T11:30:08.261Z,25.38
2016-08-20T11:31:08.279Z,25.38
2016-08-20T11:32:08.312Z,25.34
2016-08-20T11:33:08.292Z,25.39
2016-08-20T11:34:08.305Z,25.44
2016-08-20T11:35:08.265Z,25.37
2016-08-20T11:36:08.284Z,25.39
2016-08-20T11:37:08.279Z,25.46
2016-08-20T11:38:08.284Z,25.52
2016-08-20T11:39:08.301Z,25.53
2016-08-20T11:40:08.373Z,25.53
2016-08-20T11:41:08.281Z,25.54
2016-08-20T11:42:08.300Z,25.56
2016-08-20T11:43:08.330Z,25.53
2016-08-20T11:44:08.325Z,25.5
2016-08-20T11:45:08.297Z,25.49
2016-08-20T11:46:08.313Z,25.53
2016-08-20T11:47:08.289Z,25.62
2016-08-20T11:48:08.298Z,25.79
2016-08-20T11:49:08.287Z,25.71
2016-08-20T11:50:08.314Z,25.79
2016-08-20T11:51:08.294Z,25.69
2016-08-20T11:52:08.295Z,25.75
2016-08-20T11:53:08.311Z,25.8
2016-08-20T11:54:08.309Z,25.65
2016-08-20T11:55:08.324Z,25.82
2016-08-20T11:56:08.307Z,25.82
2016-08-20T11:57:08.325Z,25.82
2016-08-20T11:58:08.310Z,25.93
2016-08-20T11:59:08.313Z,25.98
2016-08-20T12:00:08.313Z,26.11
2016-08-20T12:01:08.478Z,26.25
2016-08-20T12:02:08.328Z,26.15
2016-08-20T12:03:08.316Z,26.28
2016-08-20T12:04:08.313Z,26.32
2016-08-20T12:05:08.330Z,26.31
2016-08-20T12:06:08.344Z,26.29
2016-08-20T12:07:08.333Z,26.28
2016-08-20T12:08:08.324Z,26.29
2016-08-20T12:09:08.314Z,26.21
2016-08-20T12:10:08.302Z,26.28
2016-08-20T12:11:08.335Z,26.2
2016-08-20T12:12:08.299Z,26.31
2016-08-20T12:13:08.348Z,26.24
2016-08-20T12:14:08.354Z,26.2
2016-08-20T12:15:08.314Z,26.25
2016-08-20T12:16:08.348Z,26.17
2016-08-20T12:17:08.341Z,26.18
2016-08-20T12:18:08.333Z,26.11
2016-08-20T12:19:08.338Z,26.15
2016-08-20T12:20:08.373Z,26.11
2016-08-20T12:21:08.391Z,26.04
2016-08-20T12:22:08.330Z,26.05
2016-08-20T12:23:08.319Z,25.84
2016-08-20T12:24:08.341Z,25.83
2016-08-20T12:25:08.391Z,25.71
2016-08-20T12:26:08.322Z,25.57
2016-08-20T12:27:08.352Z,25.47
2016-08-20T12:28:08.338Z,25.25
2016-08-20T12:29:08.361Z,25.16
2016-08-20T12:30:08.314Z,25.1
2016-08-20T12:31:08.348Z,25.02
2016-08-20T12:32:08.336Z,24.92
2016-08-20T12:33:08.344Z,24.9
2016-08-20T12:34:08.350Z,24.79
2016-08-20T12:35:08.362Z,24.87
2016-08-20T12:36:08.323Z,24.8
2016-08-20T12:37:08.375Z,24.95
2016-08-20T12:38:08.397Z,24.82
2016-08-20T12:39:08.359Z,24.71
2016-08-20T12:40:08.379Z,24.85
2016-08-20T12:41:08.342Z,24.71
2016-08-20T12:42:08.377Z,24.73
2016-08-20T12:43:08.390Z,24.44
2016-08-20T12:44:08.375Z,24.59
2016-08-20T12:45:08.395Z,24.44
2016-08-20T12:46:08.393Z,24.44
2016-08-20T12:47:08.359Z,24.29
2016-08-20T12:48:08.362Z,24.32
2016-08-20T12:49:08.376Z,24.38
2016-08-20T12:50:08.378Z,24.29
2016-08-20T12:51:08.346Z,24.35
2016-08-20T12:52:08.389Z,24.08
2016-08-20T12:53:08.375Z,24.31
2016-08-20T12:54:08.380Z,24.24
2016-08-20T12:55:08.403Z,24.14
2016-08-20T12:56:08.410Z,24.2
2016-08-20T12:57:08.405Z,24.13
2016-08-20T12:58:08.391Z,24.27
2016-08-20T12:59:08.404Z,24.2
2016-08-20T13:00:08.429Z,24.27